Flight Track Log - Related Links

Times and Time Zones

All times are in EST time to prevent confusion due to time zone crossing. See the SWA2147 flight status page for this flight to view local times or setup timezone preferences in your user account.

Time Position Orientation Groundspeed Altitude Reporting Facility
EST Latitude Longitude Course Direction KTS MPH feet Rate Location/Type
Sat 10:43:07 PM 32.7333 -117.2167 303° West 157 181 1,500  Level Southern California TRACON
Sat 10:44:22 PM 32.7808 -117.3022 303° West 265 305 4,900 3,000 Climbing Los Angeles Center
Sat 10:45:23 PM 32.8131 -117.3761 297° West 279 321 8,300 3,295 Climbing Los Angeles Center
Sat 10:46:24 PM 32.8708 -117.4486 314° West 299 344 11,600 3,590 Climbing Los Angeles Center
Sat 10:47:25 PM 32.9378 -117.5314 314° West 335 386 15,600 3,818 Climbing Los Angeles Center
Sat 10:48:25 PM 33.0250 -117.5797 335° Northwest 362 417 19,300 3,868 Climbing Los Angeles Center
Sat 10:49:26 PM 33.1478 -117.6042 351° North 372 428 23,400 4,082 Climbing Los Angeles Center
Sat 10:50:27 PM 33.2531 -117.6242 351° North 381 438 27,600 2,754 Climbing Los Angeles Center
Sat 10:51:28 PM 33.3539 -117.6433 351° North 371 427 29,000 683 Climbing Los Angeles Center
Sat 10:52:30 PM 33.4558 -117.6642 350° North 371 427 29,000  Level Los Angeles Center
Sat 10:53:30 PM 33.5583 -117.6833 351° North 374 430 29,000  Level Los Angeles Center
Sat 10:54:31 PM 33.6608 -117.7042 350° North 376 433 29,000  Level Los Angeles Center
Sat 10:55:32 PM 33.7636 -117.7236 351° North 377 434 29,000  Level Los Angeles Center
Sat 10:56:33 PM 33.8678 -117.7428 351° North 380 437 29,000  Level Los Angeles Center
Sat 10:57:34 PM 33.9542 -117.6700 35° Northeast 390 449 29,000  Level Los Angeles Center
Sat 10:58:35 PM 34.0347 -117.5853 41° Northeast 387 445 29,000  Level Los Angeles Center
Sat 10:59:36 PM 34.1283 -117.4833 42° Northeast 381 438 29,000  Level Los Angeles Center
Sat 11:00:37 PM 34.2075 -117.3997 41° Northeast 380 437 29,000  Level Los Angeles Center
Sat 11:01:38 PM 34.2858 -117.3161 41° Northeast 377 434 29,000  Level Los Angeles Center
Sat 11:02:39 PM 34.3639 -117.2303 42° Northeast 379 436 29,000  Level Los Angeles Center
Sat 11:03:40 PM 34.4442 -117.1428 42° Northeast 377 434 29,000  Level Los Angeles Center
Sat 11:04:41 PM 34.5222 -117.0597 41° Northeast 376 433 29,000  Level Los Angeles Center
Sat 11:05:42 PM 34.5994 -116.9744 42° Northeast 376 433 29,000  Level Los Angeles Center
Sat 11:06:43 PM 34.6769 -116.8886 42° Northeast 378 435 29,000  Level Los Angeles Center
Sat 11:07:44 PM 34.7533 -116.8047 42° Northeast 375 432 29,000  Level Los Angeles Center
Sat 11:08:45 PM 34.8303 -116.7203 42° Northeast 374 430 29,000  Level Los Angeles Center
Sat 11:09:46 PM 34.9083 -116.6347 42° Northeast 377 434 29,000 -744 Level Los Angeles Center
Sat 11:10:46 PM 34.9836 -116.5492 43° Northeast 374 430 27,500 -1,835 Descending Los Angeles Center
Sat 11:11:47 PM 35.0578 -116.4594 45° Northeast 376 433 25,300 -1,721 Descending Los Angeles Center
Sat 11:12:48 PM 35.1406 -116.3550 46° Northeast 369 425 24,000 -639 Descending Los Angeles Center
Sat 11:13:49 PM 35.2083 -116.2700 46° Northeast 357 411 24,000  Level Los Angeles Center
Sat 11:14:50 PM 35.2750 -116.1839 47° Northeast 351 404 24,000 -689 Level Los Angeles Center
Sat 11:15:51 PM 35.3417 -116.0981 46° Northeast 348 400 22,600 -1,574 Descending Los Angeles Center
Sat 11:16:52 PM 35.4069 -116.0161 46° Northeast 340 391 20,800 -1,826 Descending Los Angeles Center
Sat 11:17:46 PM 35.4647 -115.9483 44° Northeast 337 388 19,100 -1,770 Descending Los Angeles Center
Sat 11:17:53 PM 35.4703 -115.9383 56° Northeast 326 375 19,000 -1,111 Descending Los Angeles Center
Sat 11:18:40 PM 35.5228 -115.8769 44° Northeast 321 369 18,100 -1,180 Descending Los Angeles Center
Sat 11:18:54 PM 35.5297 -115.8650 54° Northeast 310 357 17,800 -2,164 Descending Los Angeles Center
Sat 11:19:41 PM 35.5825 -115.8025 44° Northeast 309 356 15,900 -2,066 Descending Los Angeles Center
Sat 11:19:55 PM 35.5881 -115.7878 65° Northeast 307 353 15,700 -2,066 Descending Los Angeles Center
Sat 11:20:42 PM 35.6450 -115.7219 43° Northeast 305 351 13,800 -1,967 Descending Los Angeles Center
Sat 11:20:56 PM 35.6467 -115.7136 76° East 305 351 13,700 -1,500 Descending Los Angeles Center
Sat 11:21:42 PM 35.6769 -115.6297 66° East 309 356 12,300 -1,770 Descending Los Angeles Center
Sat 11:21:57 PM 35.6825 -115.5994 77° East 300 345 11,900 -1,574 Descending Los Angeles Center
Sat 11:22:43 PM 35.6989 -115.5300 74° East 300 345 10,700 -1,574 Descending Los Angeles Center
Sat 11:22:58 PM 35.7039 -115.5022 77° East 298 343 10,300 -1,105 Descending Los Angeles Center
Sat 11:23:59 PM 35.7233 -115.4128 75° East 288 331 9,300 -849 Descending Los Angeles Center
Sat 11:24:44 PM 35.7592 -115.3703 44° Northeast 236 272 8,800 -590 Descending Los Angeles Center
Sat 11:25:00 PM 35.7717 -115.3550 45° Northeast 232 267 8,700 -393 Descending Los Angeles Center
Sat 11:25:45 PM 35.8039 -115.3267 35° Northeast 211 243 8,400 -689 Descending Los Angeles Center
Sat 11:26:01 PM 35.8192 -115.3150 32° Northeast 208 239 8,000 -778 Descending Los Angeles Center
Sat 11:26:39 PM 35.8517 -115.2978 23° Northeast 207 238 7,700 -689 Descending Los Angeles Center
Sat 11:27:02 PM 35.8725 -115.2861 24° Northeast 208 239 7,300 -1,309 Descending Los Angeles Center
Sat 11:27:34 PM 35.9019 -115.2706 23° Northeast 215 247 6,500 -1,475 Descending Los Angeles Center
Sat 11:28:03 PM 35.9275 -115.2547 27° Northeast 216 249 5,800 -1,444 Descending Los Angeles Center
Sat 11:28:28 PM 35.9517 -115.2411 25° Northeast 220 253 5,200 -1,377 Descending Los Angeles Center
Sat 11:29:04 PM 35.9867 -115.2203 26° Northeast 218 251 4,400 -1,180 Descending Los Angeles Center
Sat 11:29:29 PM 36.0017 -115.2139 19° North 179 206 4,000 -885 Descending Los Angeles Center
Sat 11:30:05 PM 36.0256 -115.1978 29° Northeast 163 188 3,500 -787 Descending Los Angeles Center
Sat 11:30:30 PM 36.0381 -115.1914 22° Northeast 130 150 3,200 -689 Descending Los Angeles Center
Sat 11:31:06 PM 36.0547 -115.1817 25° Northeast 118 136 2,800 -700 Descending Los Angeles Center
Sat 11:31:30 PM 36.0667 -115.1739 28° Northeast 118 136 2,500 -590 Descending Los Angeles Center
Sat 11:32:07 PM 36.0803 -115.1656 26° Northeast 119 137 2,200 -486 Descending Los Angeles Center
Sat 11:34:00 PM 36.0801 -115.1523 96° East  Level Estimated

Login

Don't have an account? Register now (free) for customized features, flight alerts, and more!